createdAt,value
2022-09-07T00:03:57.988Z,100297.72
2022-09-07T00:09:03.393Z,100292.78
2022-09-07T00:14:07.809Z,100294.41
2022-09-07T00:19:10.676Z,100286.56
2022-09-07T00:24:13.646Z,100290.66
2022-09-07T00:29:16.575Z,100284.47
2022-09-07T00:34:19.601Z,100280.50
2022-09-07T00:39:22.367Z,100270.56
2022-09-07T00:44:43.843Z,100277.97
2022-09-07T00:49:54.626Z,100273.41
2022-09-07T00:55:03.062Z,100283.88
2022-09-07T01:00:07.385Z,100272.72
2022-09-07T01:05:35.821Z,100262.47
2022-09-07T01:10:39.525Z,100260.41
2022-09-07T01:16:09.456Z,100262.06
2022-09-07T01:21:22.136Z,100263.66
2022-09-07T01:27:08.475Z,100262.00
2022-09-07T01:32:26.641Z,100264.66
2022-09-07T01:37:55.056Z,100258.03
2022-09-07T01:43:16.893Z,100262.34
2022-09-07T01:48:21.782Z,100253.06
2022-09-07T01:53:50.840Z,100253.25
2022-09-07T01:59:07.747Z,100239.63
2022-09-07T02:04:20.786Z,100248.66
2022-09-07T02:09:35.271Z,100239.59
2022-09-07T02:14:44.029Z,100243.69
2022-09-07T02:20:03.691Z,100243.22
2022-09-07T02:25:09.418Z,100242.59
2022-09-07T02:30:13.693Z,100235.97
2022-09-07T02:35:17.127Z,100233.06
2022-09-07T02:40:20.182Z,100221.69
2022-09-07T02:45:23.331Z,100225.81
2022-09-07T02:50:44.674Z,100217.94
2022-09-07T02:56:34.026Z,100223.91
2022-09-07T03:02:05.070Z,100222.47
2022-09-07T03:07:55.513Z,100220.81
2022-09-07T03:12:58.341Z,100221.59
2022-09-07T03:18:01.186Z,100220.31
2022-09-07T03:23:05.110Z,100217.44
2022-09-07T03:28:08.314Z,100216.19
2022-09-07T03:33:11.540Z,100214.53
2022-09-07T03:38:14.477Z,100223.56
2022-09-07T03:43:17.889Z,100221.91
2022-09-07T03:48:20.699Z,100221.50
2022-09-07T03:53:23.568Z,100226.00
2022-09-07T03:58:28.335Z,100227.72
2022-09-07T04:03:32.434Z,100243.38
2022-09-07T04:08:37.515Z,100235.41
2022-09-07T04:13:41.653Z,100235.91
2022-09-07T04:18:45.339Z,100245.03
2022-09-07T04:23:49.193Z,100246.72
2022-09-07T04:28:53.033Z,100244.53
2022-09-07T04:33:56.755Z,100253.66
2022-09-07T04:39:02.725Z,100249.53
2022-09-07T04:44:05.808Z,100254.47
2022-09-07T04:49:12.121Z,100250.75
2022-09-07T04:54:15.105Z,100256.34
2022-09-07T04:59:18.166Z,100259.72
2022-09-07T05:04:21.096Z,100254.19
2022-09-07T05:09:24.015Z,100261.25
2022-09-07T05:14:27.032Z,100256.41
2022-09-07T05:19:29.835Z,100262.25
2022-09-07T05:24:36.795Z,100270.78
2022-09-07T05:35:02.595Z,100266.09
2022-09-07T05:40:06.288Z,100273.75
2022-09-07T05:45:10.785Z,100271.72
2022-09-07T05:50:13.599Z,100278.38
2022-09-07T05:55:29.488Z,100270.72
2022-09-07T06:00:33.678Z,100275.44
2022-09-07T06:05:36.562Z,100281.66
2022-09-07T06:15:43.360Z,100273.75
2022-09-07T06:20:46.483Z,100272.47
2022-09-07T06:25:50.032Z,100266.44
2022-09-07T06:30:52.879Z,100270.75
2022-09-07T06:36:03.923Z,100269.06
2022-09-07T06:52:04.677Z,100261.50
2022-09-07T06:57:09.450Z,100258.53
2022-09-07T07:02:15.095Z,100263.41
2022-09-07T07:07:18.320Z,100258.78
2022-09-07T07:17:22.713Z,100263.84
2022-09-07T07:27:49.642Z,100254.47
2022-09-07T07:32:53.085Z,100257.59
2022-09-07T07:43:18.980Z,100256.03
2022-09-07T07:48:21.988Z,100256.38
2022-09-07T07:53:41.956Z,100244.63
2022-09-07T07:58:48.049Z,100250.13
2022-09-07T08:03:51.124Z,100242.97
2022-09-07T08:08:56.038Z,100243.00
2022-09-07T08:14:00.357Z,100246.53
2022-09-07T08:19:03.445Z,100236.97
2022-09-07T08:24:06.433Z,100249.53
2022-09-07T08:29:09.164Z,100236.13
2022-09-07T08:34:12.040Z,100230.34
2022-09-07T08:39:14.763Z,100225.59
2022-09-07T08:44:49.633Z,100221.28
2022-09-07T08:50:02.173Z,100221.38
2022-09-07T08:55:20.428Z,100215.38
2022-09-07T09:00:23.776Z,100203.44
2022-09-07T09:05:37.189Z,100197.44
2022-09-07T09:10:58.204Z,100195.00
2022-09-07T09:16:32.529Z,100200.38
2022-09-07T09:21:35.775Z,100197.94
2022-09-07T09:26:43.054Z,100201.00
2022-09-07T09:31:47.479Z,100202.41
2022-09-07T09:36:54.256Z,100204.72
2022-09-07T09:42:20.531Z,100190.47
2022-09-07T09:47:34.215Z,100183.81
2022-09-07T09:52:46.401Z,100180.19
2022-09-07T10:08:58.963Z,100163.44
2022-09-07T10:14:01.873Z,100168.19
2022-09-07T10:19:04.606Z,100151.50
2022-09-07T10:24:07.351Z,100152.59
2022-09-07T10:29:22.691Z,100147.97
2022-09-07T10:34:43.428Z,100148.88
2022-09-07T10:40:06.211Z,100135.88
2022-09-07T10:46:03.736Z,100135.34
2022-09-07T10:51:18.016Z,100133.72
2022-09-07T10:56:33.321Z,100131.44
2022-09-07T11:01:53.487Z,100120.75
2022-09-07T11:07:59.064Z,100124.44
2022-09-07T11:13:06.323Z,100107.19
2022-09-07T11:18:14.534Z,100101.53
2022-09-07T11:23:46.299Z,100091.16
2022-09-07T11:34:45.207Z,100085.69
2022-09-07T11:39:58.153Z,100067.13
2022-09-07T11:45:31.418Z,100073.78
2022-09-07T11:50:39.506Z,100068.75
2022-09-07T11:55:47.337Z,100061.81
2022-09-07T12:01:16.223Z,100052.63
2022-09-07T12:06:27.210Z,100056.91
2022-09-07T12:12:14.412Z,100056.00
2022-09-07T12:17:26.680Z,100053.53
2022-09-07T12:22:29.535Z,100042.84
2022-09-07T12:27:32.851Z,100041.09
2022-09-07T12:32:56.857Z,100041.09
2022-09-07T12:38:19.238Z,100036.84
2022-09-07T12:43:21.923Z,100041.00
2022-09-07T12:48:52.217Z,100034.19
2022-09-07T12:54:35.877Z,100019.41
2022-09-07T13:00:11.627Z,100006.75
2022-09-07T13:05:41.069Z,100011.94
2022-09-07T13:10:44.516Z,100005.66
2022-09-07T13:16:05.202Z,99998.22
2022-09-07T13:21:08.068Z,100008.56
2022-09-07T13:26:54.806Z,99993.75
2022-09-07T13:32:17.674Z,99989.56
2022-09-07T13:37:25.066Z,100002.81
2022-09-07T13:42:33.719Z,99994.19
2022-09-07T13:48:01.900Z,99990.69
2022-09-07T13:53:44.600Z,99979.91
2022-09-07T13:58:52.172Z,99969.41
2022-09-07T14:04:09.508Z,99963.28
2022-09-07T14:09:24.000Z,99973.63
2022-09-07T14:14:33.258Z,99962.25
2022-09-07T14:19:41.906Z,99963.88
2022-09-07T14:25:01.913Z,99964.53
2022-09-07T14:30:23.465Z,99977.16
2022-09-07T14:35:33.911Z,99971.13
2022-09-07T14:40:36.842Z,99963.91
2022-09-07T14:45:39.911Z,99953.00
2022-09-07T14:51:05.473Z,99953.13
2022-09-07T14:56:35.912Z,99947.38
2022-09-07T15:01:38.990Z,99952.38
2022-09-07T15:12:09.616Z,99947.44
2022-09-07T15:22:48.903Z,99941.16
2022-09-07T15:27:51.826Z,99943.28
2022-09-07T15:32:57.391Z,99942.09
2022-09-07T15:38:02.270Z,99946.63
2022-09-07T15:43:19.474Z,99950.28
2022-09-07T15:48:27.553Z,99957.91
2022-09-07T15:58:55.191Z,99962.06
2022-09-07T16:03:59.073Z,99960.06
2022-09-07T16:09:02.429Z,99970.38
2022-09-07T16:14:05.346Z,99979.22
2022-09-07T16:19:12.718Z,99971.53
2022-09-07T16:24:17.408Z,99967.34
2022-09-07T16:29:20.543Z,99960.38
2022-09-07T16:34:23.295Z,99959.34
2022-09-07T16:39:26.517Z,99956.16
2022-09-07T16:44:29.455Z,99948.31
2022-09-07T16:49:32.496Z,99956.22
2022-09-07T16:54:35.828Z,99939.63
2022-09-07T16:59:38.724Z,99935.53
2022-09-07T17:04:41.631Z,99940.63
2022-09-07T17:09:44.598Z,99942.44
2022-09-07T17:14:47.420Z,99936.31
2022-09-07T17:19:50.834Z,99936.19
2022-09-07T17:24:55.538Z,99932.22
2022-09-07T17:29:58.357Z,99945.41
2022-09-07T17:35:01.347Z,99946.03
2022-09-07T17:40:06.356Z,99962.41
2022-09-07T17:45:11.541Z,99966.31
2022-09-07T17:50:14.436Z,99979.25
2022-09-07T17:55:17.337Z,99994.47
2022-09-07T18:00:20.245Z,99980.44
2022-09-07T18:05:22.982Z,99991.91
2022-09-07T18:10:26.628Z,100001.78
2022-09-07T18:15:29.747Z,100013.53
2022-09-07T18:20:34.458Z,100015.88
2022-09-07T18:25:37.748Z,100014.16
2022-09-07T18:30:42.276Z,100017.22
2022-09-07T18:35:47.268Z,100026.94
2022-09-07T18:40:51.138Z,100015.19
2022-09-07T18:46:00.105Z,100011.81
2022-09-07T18:51:03.600Z,100007.41
2022-09-07T18:56:15.737Z,99998.88
2022-09-07T19:01:18.985Z,100000.69
2022-09-07T19:06:24.639Z,100007.31
2022-09-07T19:11:27.553Z,100003.38
2022-09-07T19:16:31.597Z,100000.25
2022-09-07T19:21:39.316Z,100001.50
2022-09-07T19:26:48.271Z,100011.00
2022-09-07T19:32:06.918Z,100007.06
2022-09-07T19:37:12.653Z,100011.31
2022-09-07T19:42:15.963Z,99992.06
2022-09-07T19:47:19.446Z,99994.75
2022-09-07T19:52:22.302Z,99998.41
2022-09-07T19:57:25.130Z,99996.44
2022-09-07T20:02:27.912Z,99993.66
2022-09-07T20:07:30.759Z,99981.59
2022-09-07T20:12:33.582Z,99978.53
2022-09-07T20:17:37.634Z,99994.03
2022-09-07T20:22:40.518Z,99986.16
2022-09-07T20:27:43.807Z,99982.66
2022-09-07T20:32:46.544Z,99985.09
2022-09-07T20:37:49.543Z,99995.34
2022-09-07T20:42:52.427Z,99990.66
2022-09-07T20:47:55.278Z,99990.22
2022-09-07T20:52:58.154Z,99983.19
2022-09-07T20:58:00.885Z,99986.25
2022-09-07T21:03:04.225Z,99988.38
2022-09-07T21:08:07.216Z,99991.78
2022-09-07T21:13:10.570Z,99972.78
2022-09-07T21:18:16.894Z,99980.16
2022-09-07T21:23:19.763Z,99987.19
2022-09-07T21:28:23.418Z,99984.88
2022-09-07T21:33:28.393Z,99993.66
2022-09-07T21:38:31.163Z,99984.53
2022-09-07T21:43:34.981Z,99977.03
2022-09-07T21:48:38.158Z,99984.31
2022-09-07T21:53:42.067Z,99974.09
2022-09-07T21:58:44.953Z,99972.78
2022-09-07T22:03:56.954Z,99980.97
2022-09-07T22:09:00.910Z,99979.41
2022-09-07T22:14:05.356Z,99977.41
2022-09-07T22:19:08.165Z,99973.66
2022-09-07T22:24:15.183Z,99984.28
2022-09-07T22:29:17.975Z,99978.78
2022-09-07T22:34:20.907Z,99992.69
2022-09-07T22:39:23.739Z,99987.78
2022-09-07T22:44:27.591Z,99983.75
2022-09-07T22:49:30.351Z,99976.38
2022-09-07T22:54:33.118Z,99977.06
2022-09-07T22:59:35.942Z,99971.53
2022-09-07T23:04:39.219Z,99964.94
2022-09-07T23:09:42.256Z,99959.31
2022-09-07T23:14:45.036Z,99949.88
2022-09-07T23:19:48.121Z,99942.50
2022-09-07T23:24:50.879Z,99940.91
2022-09-07T23:29:53.558Z,99926.97
2022-09-07T23:34:56.243Z,99924.47
2022-09-07T23:39:59.038Z,99923.31
2022-09-07T23:45:03.190Z,99921.72
2022-09-07T23:50:07.052Z,99919.50
2022-09-07T23:55:11.091Z,99925.53
